sensor_id;sensor_type;location;lat;lon;timestamp;pressure;altitude;pressure_sealevel;temperature
20733;BMP180;10527;52.124;5.196;2023-07-20T00:01:52;101357.00;;;28.20
20733;BMP180;10527;52.124;5.196;2023-07-20T00:04:19;101355.00;;;28.20
20733;BMP180;10527;52.124;5.196;2023-07-20T00:06:46;101351.00;;;28.20
20733;BMP180;10527;52.124;5.196;2023-07-20T00:09:15;101350.00;;;28.20
20733;BMP180;10527;52.124;5.196;2023-07-20T00:11:50;101355.00;;;28.10
20733;BMP180;10527;52.124;5.196;2023-07-20T00:14:20;101358.00;;;28.10
20733;BMP180;10527;52.124;5.196;2023-07-20T00:16:50;101357.00;;;28.10
20733;BMP180;10527;52.124;5.196;2023-07-20T00:19:27;101361.00;;;28.00
20733;BMP180;10527;52.124;5.196;2023-07-20T00:21:55;101369.00;;;28.00
20733;BMP180;10527;52.124;5.196;2023-07-20T00:24:23;101362.00;;;28.00
20733;BMP180;10527;52.124;5.196;2023-07-20T00:26:52;101357.00;;;28.00
20733;BMP180;10527;52.124;5.196;2023-07-20T00:29:19;101357.00;;;28.00
20733;BMP180;10527;52.124;5.196;2023-07-20T00:31:45;101361.00;;;28.00
20733;BMP180;10527;52.124;5.196;2023-07-20T00:34:14;101360.00;;;27.90
20733;BMP180;10527;52.124;5.196;2023-07-20T00:36:40;101359.00;;;27.90
20733;BMP180;10527;52.124;5.196;2023-07-20T00:39:08;101363.00;;;27.90
20733;BMP180;10527;52.124;5.196;2023-07-20T00:41:35;101362.00;;;27.90
20733;BMP180;10527;52.124;5.196;2023-07-20T00:44:05;101351.00;;;27.90
20733;BMP180;10527;52.124;5.196;2023-07-20T00:46:33;101348.00;;;27.80
20733;BMP180;10527;52.124;5.196;2023-07-20T00:49:01;101340.00;;;27.80
20733;BMP180;10527;52.124;5.196;2023-07-20T00:51:28;101350.00;;;27.80
20733;BMP180;10527;52.124;5.196;2023-07-20T00:53:55;101346.00;;;27.70
20733;BMP180;10527;52.124;5.196;2023-07-20T00:56:22;101356.00;;;27.70
20733;BMP180;10527;52.124;5.196;2023-07-20T00:58:51;101351.00;;;27.70
20733;BMP180;10527;52.124;5.196;2023-07-20T01:01:18;101357.00;;;27.70
20733;BMP180;10527;52.124;5.196;2023-07-20T01:03:45;101357.00;;;27.70
20733;BMP180;10527;52.124;5.196;2023-07-20T01:06:53;101348.00;;;27.70
20733;BMP180;10527;52.124;5.196;2023-07-20T01:09:44;101348.00;;;27.70
20733;BMP180;10527;52.124;5.196;2023-07-20T01:12:35;101349.00;;;27.60
20733;BMP180;10527;52.124;5.196;2023-07-20T01:15:03;101350.00;;;27.60
20733;BMP180;10527;52.124;5.196;2023-07-20T01:17:30;101346.00;;;27.60
20733;BMP180;10527;52.124;5.196;2023-07-20T01:19:56;101355.00;;;27.50
20733;BMP180;10527;52.124;5.196;2023-07-20T01:22:55;101360.00;;;27.50
20733;BMP180;10527;52.124;5.196;2023-07-20T01:31:36;101360.00;;;27.40
20733;BMP180;10527;52.124;5.196;2023-07-20T01:34:08;101366.00;;;27.40
20733;BMP180;10527;52.124;5.196;2023-07-20T01:36:37;101361.00;;;27.40
20733;BMP180;10527;52.124;5.196;2023-07-20T01:39:08;101365.00;;;27.40
20733;BMP180;10527;52.124;5.196;2023-07-20T01:41:38;101365.00;;;27.40
20733;BMP180;10527;52.124;5.196;2023-07-20T01:44:05;101359.00;;;27.40
20733;BMP180;10527;52.124;5.196;2023-07-20T01:46:32;101365.00;;;27.40
20733;BMP180;10527;52.124;5.196;2023-07-20T01:48:59;101363.00;;;27.40
20733;BMP180;10527;52.124;5.196;2023-07-20T01:51:26;101366.00;;;27.40
20733;BMP180;10527;52.124;5.196;2023-07-20T01:53:53;101372.00;;;27.30
20733;BMP180;10527;52.124;5.196;2023-07-20T01:56:20;101371.00;;;27.30
20733;BMP180;10527;52.124;5.196;2023-07-20T01:58:47;101367.00;;;27.30
20733;BMP180;10527;52.124;5.196;2023-07-20T02:01:14;101366.00;;;27.20
20733;BMP180;10527;52.124;5.196;2023-07-20T02:03:41;101362.00;;;27.20
20733;BMP180;10527;52.124;5.196;2023-07-20T02:06:08;101371.00;;;27.20
20733;BMP180;10527;52.124;5.196;2023-07-20T02:08:35;101368.00;;;27.20
20733;BMP180;10527;52.124;5.196;2023-07-20T02:11:02;101370.00;;;27.20
20733;BMP180;10527;52.124;5.196;2023-07-20T02:13:31;101367.00;;;27.20
20733;BMP180;10527;52.124;5.196;2023-07-20T02:15:58;101369.00;;;27.20
20733;BMP180;10527;52.124;5.196;2023-07-20T02:18:25;101360.00;;;27.20
20733;BMP180;10527;52.124;5.196;2023-07-20T02:20:53;101362.00;;;27.20
20733;BMP180;10527;52.124;5.196;2023-07-20T02:23:21;101367.00;;;27.20
20733;BMP180;10527;52.124;5.196;2023-07-20T02:25:47;101363.00;;;27.20
20733;BMP180;10527;52.124;5.196;2023-07-20T02:28:15;101357.00;;;27.10
20733;BMP180;10527;52.124;5.196;2023-07-20T02:30:42;101360.00;;;27.10
20733;BMP180;10527;52.124;5.196;2023-07-20T02:33:09;101358.00;;;27.10
20733;BMP180;10527;52.124;5.196;2023-07-20T02:35:35;101364.00;;;27.10
20733;BMP180;10527;52.124;5.196;2023-07-20T02:38:02;101372.00;;;27.10
20733;BMP180;10527;52.124;5.196;2023-07-20T02:40:30;101363.00;;;27.10
20733;BMP180;10527;52.124;5.196;2023-07-20T02:42:57;101366.00;;;27.20
20733;BMP180;10527;52.124;5.196;2023-07-20T02:45:24;101364.00;;;27.10
20733;BMP180;10527;52.124;5.196;2023-07-20T02:47:51;101368.00;;;27.10
20733;BMP180;10527;52.124;5.196;2023-07-20T02:50:18;101373.00;;;27.10
20733;BMP180;10527;52.124;5.196;2023-07-20T02:52:45;101372.00;;;27.20
20733;BMP180;10527;52.124;5.196;2023-07-20T02:55:12;101373.00;;;27.20
20733;BMP180;10527;52.124;5.196;2023-07-20T02:57:39;101377.00;;;27.20
20733;BMP180;10527;52.124;5.196;2023-07-20T03:00:06;101384.00;;;27.10
20733;BMP180;10527;52.124;5.196;2023-07-20T03:02:33;101382.00;;;27.10
20733;BMP180;10527;52.124;5.196;2023-07-20T03:05:01;101382.00;;;27.10
20733;BMP180;10527;52.124;5.196;2023-07-20T03:07:29;101388.00;;;27.10
20733;BMP180;10527;52.124;5.196;2023-07-20T03:09:56;101382.00;;;27.10
20733;BMP180;10527;52.124;5.196;2023-07-20T03:12:23;101395.00;;;27.10
20733;BMP180;10527;52.124;5.196;2023-07-20T03:14:52;101398.00;;;27.10
20733;BMP180;10527;52.124;5.196;2023-07-20T03:17:20;101399.00;;;27.10
20733;BMP180;10527;52.124;5.196;2023-07-20T03:19:47;101405.00;;;27.10
20733;BMP180;10527;52.124;5.196;2023-07-20T03:22:14;101396.00;;;27.10
20733;BMP180;10527;52.124;5.196;2023-07-20T03:24:41;101404.00;;;27.10
20733;BMP180;10527;52.124;5.196;2023-07-20T03:27:08;101395.00;;;27.00
20733;BMP180;10527;52.124;5.196;2023-07-20T03:29:35;101404.00;;;27.00
20733;BMP180;10527;52.124;5.196;2023-07-20T03:32:02;101402.00;;;27.00
20733;BMP180;10527;52.124;5.196;2023-07-20T03:34:29;101395.00;;;27.00
20733;BMP180;10527;52.124;5.196;2023-07-20T03:36:56;101400.00;;;27.00
20733;BMP180;10527;52.124;5.196;2023-07-20T03:39:23;101392.00;;;27.00
20733;BMP180;10527;52.124;5.196;2023-07-20T03:41:50;101391.00;;;27.00
20733;BMP180;10527;52.124;5.196;2023-07-20T03:44:17;101398.00;;;27.00
20733;BMP180;10527;52.124;5.196;2023-07-20T03:46:47;101406.00;;;26.90
20733;BMP180;10527;52.124;5.196;2023-07-20T03:49:14;101405.00;;;26.90
20733;BMP180;10527;52.124;5.196;2023-07-20T03:51:41;101403.00;;;26.90
20733;BMP180;10527;52.124;5.196;2023-07-20T03:54:08;101401.00;;;26.90
20733;BMP180;10527;52.124;5.196;2023-07-20T03:56:35;101396.00;;;26.90
20733;BMP180;10527;52.124;5.196;2023-07-20T03:59:02;101401.00;;;26.80
20733;BMP180;10527;52.124;5.196;2023-07-20T04:01:29;101403.00;;;26.80
20733;BMP180;10527;52.124;5.196;2023-07-20T04:03:59;101406.00;;;26.80
20733;BMP180;10527;52.124;5.196;2023-07-20T04:06:26;101412.00;;;26.80
20733;BMP180;10527;52.124;5.196;2023-07-20T04:08:52;101419.00;;;26.80
20733;BMP180;10527;52.124;5.196;2023-07-20T04:11:19;101412.00;;;26.80
20733;BMP180;10527;52.124;5.196;2023-07-20T04:13:46;101413.00;;;26.80
20733;BMP180;10527;52.124;5.196;2023-07-20T04:16:13;101414.00;;;26.80
20733;BMP180;10527;52.124;5.196;2023-07-20T04:18:41;101417.00;;;26.80
20733;BMP180;10527;52.124;5.196;2023-07-20T04:21:08;101419.00;;;26.80
20733;BMP180;10527;52.124;5.196;2023-07-20T04:23:35;101421.00;;;26.70
20733;BMP180;10527;52.124;5.196;2023-07-20T04:26:03;101418.00;;;26.70
20733;BMP180;10527;52.124;5.196;2023-07-20T04:28:30;101416.00;;;26.70
20733;BMP180;10527;52.124;5.196;2023-07-20T04:31:13;101423.00;;;26.70
20733;BMP180;10527;52.124;5.196;2023-07-20T04:33:47;101423.00;;;26.70
20733;BMP180;10527;52.124;5.196;2023-07-20T04:36:13;101420.00;;;26.70
20733;BMP180;10527;52.124;5.196;2023-07-20T04:38:44;101429.00;;;26.70
20733;BMP180;10527;52.124;5.196;2023-07-20T04:41:11;101422.00;;;26.70
20733;BMP180;10527;52.124;5.196;2023-07-20T04:43:44;101431.00;;;26.70
20733;BMP180;10527;52.124;5.196;2023-07-20T04:46:11;101435.00;;;26.70
20733;BMP180;10527;52.124;5.196;2023-07-20T04:48:38;101437.00;;;26.70
20733;BMP180;10527;52.124;5.196;2023-07-20T04:51:07;101438.00;;;26.70
20733;BMP180;10527;52.124;5.196;2023-07-20T04:53:34;101429.00;;;26.70
20733;BMP180;10527;52.124;5.196;2023-07-20T04:56:01;101435.00;;;26.70
20733;BMP180;10527;52.124;5.196;2023-07-20T04:58:28;101440.00;;;26.60
20733;BMP180;10527;52.124;5.196;2023-07-20T05:00:54;101439.00;;;26.60
20733;BMP180;10527;52.124;5.196;2023-07-20T05:03:21;101443.00;;;26.60
20733;BMP180;10527;52.124;5.196;2023-07-20T05:05:48;101439.00;;;26.60
20733;BMP180;10527;52.124;5.196;2023-07-20T05:08:16;101438.00;;;26.60
20733;BMP180;10527;52.124;5.196;2023-07-20T05:10:43;101437.00;;;26.60
20733;BMP180;10527;52.124;5.196;2023-07-20T05:13:10;101446.00;;;26.60
20733;BMP180;10527;52.124;5.196;2023-07-20T05:15:37;101445.00;;;26.60
20733;BMP180;10527;52.124;5.196;2023-07-20T05:18:04;101448.00;;;26.60
20733;BMP180;10527;52.124;5.196;2023-07-20T05:20:31;101448.00;;;26.50
20733;BMP180;10527;52.124;5.196;2023-07-20T05:23:00;101437.00;;;26.60
20733;BMP180;10527;52.124;5.196;2023-07-20T05:25:27;101443.00;;;26.60
20733;BMP180;10527;52.124;5.196;2023-07-20T05:27:57;101443.00;;;26.60
20733;BMP180;10527;52.124;5.196;2023-07-20T05:30:24;101441.00;;;26.60
20733;BMP180;10527;52.124;5.196;2023-07-20T05:32:51;101441.00;;;26.60
20733;BMP180;10527;52.124;5.196;2023-07-20T05:35:19;101442.00;;;26.60
20733;BMP180;10527;52.124;5.196;2023-07-20T05:37:46;101436.00;;;26.60
20733;BMP180;10527;52.124;5.196;2023-07-20T05:40:15;101436.00;;;26.60
20733;BMP180;10527;52.124;5.196;2023-07-20T05:42:47;101435.00;;;26.60
20733;BMP180;10527;52.124;5.196;2023-07-20T05:45:15;101435.00;;;26.60
20733;BMP180;10527;52.124;5.196;2023-07-20T05:47:42;101438.00;;;26.60
20733;BMP180;10527;52.124;5.196;2023-07-20T05:50:10;101437.00;;;26.60
20733;BMP180;10527;52.124;5.196;2023-07-20T05:52:37;101432.00;;;26.50
20733;BMP180;10527;52.124;5.196;2023-07-20T05:55:06;101433.00;;;26.50
20733;BMP180;10527;52.124;5.196;2023-07-20T05:57:34;101439.00;;;26.50
20733;BMP180;10527;52.124;5.196;2023-07-20T06:00:02;101444.00;;;26.50
20733;BMP180;10527;52.124;5.196;2023-07-20T06:02:29;101448.00;;;26.50
20733;BMP180;10527;52.124;5.196;2023-07-20T06:04:56;101443.00;;;26.50
20733;BMP180;10527;52.124;5.196;2023-07-20T06:07:24;101439.00;;;26.60
20733;BMP180;10527;52.124;5.196;2023-07-20T06:09:51;101446.00;;;26.60
20733;BMP180;10527;52.124;5.196;2023-07-20T06:12:18;101446.00;;;26.60
20733;BMP180;10527;52.124;5.196;2023-07-20T06:14:45;101455.00;;;26.60
20733;BMP180;10527;52.124;5.196;2023-07-20T06:17:11;101445.00;;;26.60
20733;BMP180;10527;52.124;5.196;2023-07-20T06:19:38;101451.00;;;26.70
20733;BMP180;10527;52.124;5.196;2023-07-20T06:22:05;101454.00;;;26.70
20733;BMP180;10527;52.124;5.196;2023-07-20T06:24:32;101454.00;;;26.70
20733;BMP180;10527;52.124;5.196;2023-07-20T06:26:59;101454.00;;;26.70
20733;BMP180;10527;52.124;5.196;2023-07-20T06:29:26;101454.00;;;26.70
20733;BMP180;10527;52.124;5.196;2023-07-20T06:31:53;101458.00;;;26.70
20733;BMP180;10527;52.124;5.196;2023-07-20T06:34:19;101457.00;;;26.80
20733;BMP180;10527;52.124;5.196;2023-07-20T06:36:50;101459.00;;;26.80
20733;BMP180;10527;52.124;5.196;2023-07-20T06:39:19;101455.00;;;26.80
20733;BMP180;10527;52.124;5.196;2023-07-20T06:41:49;101463.00;;;26.80
20733;BMP180;10527;52.124;5.196;2023-07-20T06:44:22;101461.00;;;26.80
20733;BMP180;10527;52.124;5.196;2023-07-20T06:46:49;101478.00;;;26.90
20733;BMP180;10527;52.124;5.196;2023-07-20T06:49:27;101471.00;;;26.90
20733;BMP180;10527;52.124;5.196;2023-07-20T06:51:54;101471.00;;;27.00
20733;BMP180;10527;52.124;5.196;2023-07-20T06:54:21;101476.00;;;27.00
20733;BMP180;10527;52.124;5.196;2023-07-20T06:56:50;101479.00;;;27.00
20733;BMP180;10527;52.124;5.196;2023-07-20T06:59:37;101477.00;;;27.00
20733;BMP180;10527;52.124;5.196;2023-07-20T07:02:07;101477.00;;;27.10
20733;BMP180;10527;52.124;5.196;2023-07-20T07:04:41;101476.00;;;27.10
20733;BMP180;10527;52.124;5.196;2023-07-20T07:07:08;101477.00;;;27.10
20733;BMP180;10527;52.124;5.196;2023-07-20T07:09:36;101478.00;;;27.20
20733;BMP180;10527;52.124;5.196;2023-07-20T07:12:04;101476.00;;;27.20
20733;BMP180;10527;52.124;5.196;2023-07-20T07:14:31;101478.00;;;27.20
20733;BMP180;10527;52.124;5.196;2023-07-20T07:16:59;101481.00;;;27.20
20733;BMP180;10527;52.124;5.196;2023-07-20T07:19:31;101480.00;;;27.20
20733;BMP180;10527;52.124;5.196;2023-07-20T07:21:57;101481.00;;;27.30
20733;BMP180;10527;52.124;5.196;2023-07-20T07:24:26;101483.00;;;27.30
20733;BMP180;10527;52.124;5.196;2023-07-20T07:26:55;101488.00;;;27.40
20733;BMP180;10527;52.124;5.196;2023-07-20T07:29:22;101480.00;;;27.40
20733;BMP180;10527;52.124;5.196;2023-07-20T07:31:49;101484.00;;;27.40
20733;BMP180;10527;52.124;5.196;2023-07-20T07:34:16;101475.00;;;27.50
20733;BMP180;10527;52.124;5.196;2023-07-20T07:36:43;101477.00;;;27.50
20733;BMP180;10527;52.124;5.196;2023-07-20T07:39:11;101480.00;;;27.50
20733;BMP180;10527;52.124;5.196;2023-07-20T07:41:40;101490.00;;;27.50
20733;BMP180;10527;52.124;5.196;2023-07-20T07:44:07;101473.00;;;27.50
20733;BMP180;10527;52.124;5.196;2023-07-20T07:46:34;101488.00;;;27.50
20733;BMP180;10527;52.124;5.196;2023-07-20T07:49:01;101483.00;;;27.60
20733;BMP180;10527;52.124;5.196;2023-07-20T07:51:28;101477.00;;;27.60
20733;BMP180;10527;52.124;5.196;2023-07-20T07:53:55;101485.00;;;27.70
20733;BMP180;10527;52.124;5.196;2023-07-20T07:56:22;101484.00;;;27.70
20733;BMP180;10527;52.124;5.196;2023-07-20T07:58:51;101486.00;;;27.90
20733;BMP180;10527;52.124;5.196;2023-07-20T08:01:20;101480.00;;;28.00
20733;BMP180;10527;52.124;5.196;2023-07-20T08:03:47;101484.00;;;28.30
20733;BMP180;10527;52.124;5.196;2023-07-20T08:06:15;101485.00;;;28.60
20733;BMP180;10527;52.124;5.196;2023-07-20T08:08:42;101491.00;;;28.90
20733;BMP180;10527;52.124;5.196;2023-07-20T08:11:09;101482.00;;;29.20
20733;BMP180;10527;52.124;5.196;2023-07-20T08:13:38;101484.00;;;29.50
20733;BMP180;10527;52.124;5.196;2023-07-20T08:16:05;101489.00;;;29.80
20733;BMP180;10527;52.124;5.196;2023-07-20T08:18:32;101490.00;;;30.10
20733;BMP180;10527;52.124;5.196;2023-07-20T08:20:59;101486.00;;;30.30
20733;BMP180;10527;52.124;5.196;2023-07-20T08:23:26;101493.00;;;30.60
20733;BMP180;10527;52.124;5.196;2023-07-20T08:25:54;101490.00;;;30.80
20733;BMP180;10527;52.124;5.196;2023-07-20T08:28:21;101484.00;;;31.00
20733;BMP180;10527;52.124;5.196;2023-07-20T08:30:49;101495.00;;;31.20
20733;BMP180;10527;52.124;5.196;2023-07-20T08:33:18;101493.00;;;31.40
20733;BMP180;10527;52.124;5.196;2023-07-20T08:35:47;101500.00;;;31.60
20733;BMP180;10527;52.124;5.196;2023-07-20T08:38:13;101499.00;;;31.70
20733;BMP180;10527;52.124;5.196;2023-07-20T08:40:43;101510.00;;;31.70
20733;BMP180;10527;52.124;5.196;2023-07-20T08:43:11;101502.00;;;31.70
20733;BMP180;10527;52.124;5.196;2023-07-20T08:45:40;101504.00;;;31.80
20733;BMP180;10527;52.124;5.196;2023-07-20T08:48:08;101499.00;;;31.90
20733;BMP180;10527;52.124;5.196;2023-07-20T08:50:37;101500.00;;;32.00
20733;BMP180;10527;52.124;5.196;2023-07-20T08:53:06;101502.00;;;32.10
20733;BMP180;10527;52.124;5.196;2023-07-20T08:55:35;101507.00;;;32.20
20733;BMP180;10527;52.124;5.196;2023-07-20T08:58:08;101507.00;;;32.30
20733;BMP180;10527;52.124;5.196;2023-07-20T09:00:37;101500.00;;;32.30
20733;BMP180;10527;52.124;5.196;2023-07-20T09:03:06;101504.00;;;32.30
20733;BMP180;10527;52.124;5.196;2023-07-20T09:05:33;101498.00;;;32.40
20733;BMP180;10527;52.124;5.196;2023-07-20T09:08:02;101493.00;;;32.40
20733;BMP180;10527;52.124;5.196;2023-07-20T09:10:31;101501.00;;;32.50
20733;BMP180;10527;52.124;5.196;2023-07-20T09:12:58;101498.00;;;32.50
20733;BMP180;10527;52.124;5.196;2023-07-20T09:15:25;101504.00;;;32.40
20733;BMP180;10527;52.124;5.196;2023-07-20T09:17:53;101498.00;;;32.40
20733;BMP180;10527;52.124;5.196;2023-07-20T09:20:21;101496.00;;;32.30
20733;BMP180;10527;52.124;5.196;2023-07-20T09:22:51;101499.00;;;32.30
20733;BMP180;10527;52.124;5.196;2023-07-20T09:25:19;101501.00;;;32.40
20733;BMP180;10527;52.124;5.196;2023-07-20T09:27:49;101499.00;;;32.40
20733;BMP180;10527;52.124;5.196;2023-07-20T09:30:18;101507.00;;;32.40
20733;BMP180;10527;52.124;5.196;2023-07-20T09:32:48;101504.00;;;32.40
20733;BMP180;10527;52.124;5.196;2023-07-20T09:35:22;101514.00;;;32.40
20733;BMP180;10527;52.124;5.196;2023-07-20T09:38:01;101506.00;;;32.40
20733;BMP180;10527;52.124;5.196;2023-07-20T09:40:37;101503.00;;;32.50
20733;BMP180;10527;52.124;5.196;2023-07-20T09:43:09;101502.00;;;32.50
20733;BMP180;10527;52.124;5.196;2023-07-20T09:45:43;101497.00;;;32.50
20733;BMP180;10527;52.124;5.196;2023-07-20T09:48:13;101493.00;;;32.50
20733;BMP180;10527;52.124;5.196;2023-07-20T09:50:49;101501.00;;;32.50
20733;BMP180;10527;52.124;5.196;2023-07-20T09:53:18;101498.00;;;32.50
20733;BMP180;10527;52.124;5.196;2023-07-20T09:55:46;101494.00;;;32.50
20733;BMP180;10527;52.124;5.196;2023-07-20T09:58:15;101487.00;;;32.40
20733;BMP180;10527;52.124;5.196;2023-07-20T10:00:44;101492.00;;;32.30
20733;BMP180;10527;52.124;5.196;2023-07-20T10:03:21;101486.00;;;32.30
20733;BMP180;10527;52.124;5.196;2023-07-20T10:06:08;101484.00;;;32.30
20733;BMP180;10527;52.124;5.196;2023-07-20T10:08:40;101486.00;;;32.30
20733;BMP180;10527;52.124;5.196;2023-07-20T10:11:11;101490.00;;;32.20
20733;BMP180;10527;52.124;5.196;2023-07-20T10:13:43;101487.00;;;32.20
20733;BMP180;10527;52.124;5.196;2023-07-20T10:16:22;101488.00;;;32.30
20733;BMP180;10527;52.124;5.196;2023-07-20T10:18:59;101485.00;;;32.30
20733;BMP180;10527;52.124;5.196;2023-07-20T10:21:27;101483.00;;;32.40
20733;BMP180;10527;52.124;5.196;2023-07-20T10:24:00;101490.00;;;32.40
20733;BMP180;10527;52.124;5.196;2023-07-20T10:26:28;101477.00;;;32.40
20733;BMP180;10527;52.124;5.196;2023-07-20T10:28:57;101477.00;;;32.30
20733;BMP180;10527;52.124;5.196;2023-07-20T10:31:25;101480.00;;;32.30
20733;BMP180;10527;52.124;5.196;2023-07-20T10:33:57;101478.00;;;32.40
20733;BMP180;10527;52.124;5.196;2023-07-20T10:36:26;101470.00;;;32.40
20733;BMP180;10527;52.124;5.196;2023-07-20T10:38:58;101481.00;;;32.30
20733;BMP180;10527;52.124;5.196;2023-07-20T10:41:37;101471.00;;;32.30
20733;BMP180;10527;52.124;5.196;2023-07-20T10:44:08;101472.00;;;32.30
20733;BMP180;10527;52.124;5.196;2023-07-20T10:49:08;101466.00;;;32.40
20733;BMP180;10527;52.124;5.196;2023-07-20T10:51:47;101469.00;;;32.40
20733;BMP180;10527;52.124;5.196;2023-07-20T10:56:47;101470.00;;;32.50
20733;BMP180;10527;52.124;5.196;2023-07-20T11:01:55;101467.00;;;32.50
20733;BMP180;10527;52.124;5.196;2023-07-20T11:04:45;101462.00;;;32.60
20733;BMP180;10527;52.124;5.196;2023-07-20T11:07:17;101465.00;;;32.50
20733;BMP180;10527;52.124;5.196;2023-07-20T11:09:44;101462.00;;;32.50
20733;BMP180;10527;52.124;5.196;2023-07-20T11:12:18;101455.00;;;32.50
20733;BMP180;10527;52.124;5.196;2023-07-20T11:14:57;101463.00;;;32.60
20733;BMP180;10527;52.124;5.196;2023-07-20T11:17:33;101461.00;;;32.60
20733;BMP180;10527;52.124;5.196;2023-07-20T11:20:02;101461.00;;;32.60
20733;BMP180;10527;52.124;5.196;2023-07-20T11:22:33;101449.00;;;32.60
20733;BMP180;10527;52.124;5.196;2023-07-20T11:25:00;101450.00;;;32.60
20733;BMP180;10527;52.124;5.196;2023-07-20T11:27:27;101447.00;;;32.60
20733;BMP180;10527;52.124;5.196;2023-07-20T11:29:56;101446.00;;;32.70
20733;BMP180;10527;52.124;5.196;2023-07-20T11:32:24;101454.00;;;32.70
20733;BMP180;10527;52.124;5.196;2023-07-20T11:34:51;101454.00;;;32.80
20733;BMP180;10527;52.124;5.196;2023-07-20T11:37:19;101441.00;;;32.80
20733;BMP180;10527;52.124;5.196;2023-07-20T11:39:46;101436.00;;;32.90
20733;BMP180;10527;52.124;5.196;2023-07-20T11:42:13;101432.00;;;33.00
20733;BMP180;10527;52.124;5.196;2023-07-20T11:45:05;101432.00;;;33.00
20733;BMP180;10527;52.124;5.196;2023-07-20T11:47:33;101436.00;;;33.00
20733;BMP180;10527;52.124;5.196;2023-07-20T11:50:04;101435.00;;;33.10
20733;BMP180;10527;52.124;5.196;2023-07-20T11:52:31;101438.00;;;33.10
20733;BMP180;10527;52.124;5.196;2023-07-20T11:54:58;101440.00;;;33.20
20733;BMP180;10527;52.124;5.196;2023-07-20T11:57:26;101429.00;;;33.20
20733;BMP180;10527;52.124;5.196;2023-07-20T12:00:00;101431.00;;;33.30
20733;BMP180;10527;52.124;5.196;2023-07-20T12:02:28;101426.00;;;33.30
20733;BMP180;10527;52.124;5.196;2023-07-20T12:04:56;101431.00;;;33.30
20733;BMP180;10527;52.124;5.196;2023-07-20T12:07:27;101433.00;;;33.40
20733;BMP180;10527;52.124;5.196;2023-07-20T12:10:13;101425.00;;;33.50
20733;BMP180;10527;52.124;5.196;2023-07-20T12:12:44;101417.00;;;33.50
20733;BMP180;10527;52.124;5.196;2023-07-20T12:15:25;101422.00;;;33.50
20733;BMP180;10527;52.124;5.196;2023-07-20T12:17:59;101427.00;;;33.50
20733;BMP180;10527;52.124;5.196;2023-07-20T12:20:34;101422.00;;;33.40
20733;BMP180;10527;52.124;5.196;2023-07-20T12:23:11;101416.00;;;33.30
20733;BMP180;10527;52.124;5.196;2023-07-20T12:25:46;101413.00;;;33.30
20733;BMP180;10527;52.124;5.196;2023-07-20T12:28:17;101409.00;;;33.20
20733;BMP180;10527;52.124;5.196;2023-07-20T12:30:46;101420.00;;;33.20
20733;BMP180;10527;52.124;5.196;2023-07-20T12:33:13;101430.00;;;33.10
20733;BMP180;10527;52.124;5.196;2023-07-20T12:35:44;101419.00;;;33.10
20733;BMP180;10527;52.124;5.196;2023-07-20T12:38:13;101415.00;;;33.00
20733;BMP180;10527;52.124;5.196;2023-07-20T12:40:40;101417.00;;;33.00
20733;BMP180;10527;52.124;5.196;2023-07-20T12:43:07;101418.00;;;32.90
20733;BMP180;10527;52.124;5.196;2023-07-20T12:45:34;101416.00;;;32.90
20733;BMP180;10527;52.124;5.196;2023-07-20T12:48:01;101416.00;;;32.80
20733;BMP180;10527;52.124;5.196;2023-07-20T12:50:28;101419.00;;;32.80
20733;BMP180;10527;52.124;5.196;2023-07-20T12:52:55;101417.00;;;32.70
20733;BMP180;10527;52.124;5.196;2023-07-20T12:55:22;101411.00;;;32.70
20733;BMP180;10527;52.124;5.196;2023-07-20T12:57:49;101410.00;;;32.70
20733;BMP180;10527;52.124;5.196;2023-07-20T13:00:16;101406.00;;;32.70
20733;BMP180;10527;52.124;5.196;2023-07-20T13:02:43;101411.00;;;32.80
20733;BMP180;10527;52.124;5.196;2023-07-20T13:05:11;101413.00;;;32.80
20733;BMP180;10527;52.124;5.196;2023-07-20T13:07:39;101407.00;;;32.90
20733;BMP180;10527;52.124;5.196;2023-07-20T13:10:11;101399.00;;;32.90
20733;BMP180;10527;52.124;5.196;2023-07-20T13:12:38;101400.00;;;33.00
20733;BMP180;10527;52.124;5.196;2023-07-20T13:15:08;101401.00;;;33.10
20733;BMP180;10527;52.124;5.196;2023-07-20T13:17:37;101411.00;;;33.20
20733;BMP180;10527;52.124;5.196;2023-07-20T13:20:10;101402.00;;;33.20
20733;BMP180;10527;52.124;5.196;2023-07-20T13:22:38;101402.00;;;33.30
20733;BMP180;10527;52.124;5.196;2023-07-20T13:25:07;101396.00;;;33.30
20733;BMP180;10527;52.124;5.196;2023-07-20T13:27:35;101396.00;;;33.30
20733;BMP180;10527;52.124;5.196;2023-07-20T13:30:07;101397.00;;;33.30
20733;BMP180;10527;52.124;5.196;2023-07-20T13:32:36;101391.00;;;33.30
20733;BMP180;10527;52.124;5.196;2023-07-20T13:35:07;101397.00;;;33.30
20733;BMP180;10527;52.124;5.196;2023-07-20T13:37:36;101393.00;;;33.20
20733;BMP180;10527;52.124;5.196;2023-07-20T13:40:05;101389.00;;;33.20
20733;BMP180;10527;52.124;5.196;2023-07-20T13:42:33;101394.00;;;33.10
20733;BMP180;10527;52.124;5.196;2023-07-20T13:45:00;101388.00;;;33.10
20733;BMP180;10527;52.124;5.196;2023-07-20T13:47:27;101388.00;;;33.10
20733;BMP180;10527;52.124;5.196;2023-07-20T13:49:54;101392.00;;;33.00
20733;BMP180;10527;52.124;5.196;2023-07-20T13:52:30;101381.00;;;33.00
20733;BMP180;10527;52.124;5.196;2023-07-20T13:55:00;101383.00;;;33.00
20733;BMP180;10527;52.124;5.196;2023-07-20T13:57:31;101370.00;;;32.90
20733;BMP180;10527;52.124;5.196;2023-07-20T14:00:03;101372.00;;;32.90
20733;BMP180;10527;52.124;5.196;2023-07-20T14:02:31;101372.00;;;32.90
20733;BMP180;10527;52.124;5.196;2023-07-20T14:05:01;101370.00;;;32.90
20733;BMP180;10527;52.124;5.196;2023-07-20T14:07:31;101364.00;;;32.80
20733;BMP180;10527;52.124;5.196;2023-07-20T14:09:58;101357.00;;;32.80
20733;BMP180;10527;52.124;5.196;2023-07-20T14:12:28;101370.00;;;32.80
20733;BMP180;10527;52.124;5.196;2023-07-20T14:14:55;101359.00;;;32.80
20733;BMP180;10527;52.124;5.196;2023-07-20T14:17:23;101349.00;;;32.80
20733;BMP180;10527;52.124;5.196;2023-07-20T14:19:52;101351.00;;;32.90
20733;BMP180;10527;52.124;5.196;2023-07-20T14:22:19;101360.00;;;32.90